sensor_id;sensor_type;location;lat;lon;timestamp;P1;durP1;ratioP1;P2;durP2;ratioP2
553;SDS011;59;48.778;9.156;2022-12-18T00:01:44;71.53;;;45.20;;
553;SDS011;59;48.778;9.156;2022-12-18T00:04:27;69.83;;;45.80;;
553;SDS011;59;48.778;9.156;2022-12-18T00:06:53;74.68;;;45.60;;
553;SDS011;59;48.778;9.156;2022-12-18T00:09:19;62.77;;;41.87;;
553;SDS011;59;48.778;9.156;2022-12-18T00:11:45;68.07;;;43.88;;
553;SDS011;59;48.778;9.156;2022-12-18T00:14:11;67.10;;;42.40;;
553;SDS011;59;48.778;9.156;2022-12-18T00:16:37;69.37;;;42.97;;
553;SDS011;59;48.778;9.156;2022-12-18T00:19:04;72.30;;;43.90;;
553;SDS011;59;48.778;9.156;2022-12-18T00:21:30;73.07;;;45.50;;
553;SDS011;59;48.778;9.156;2022-12-18T00:23:58;70.80;;;44.58;;
553;SDS011;59;48.778;9.156;2022-12-18T00:26:25;76.10;;;46.00;;
553;SDS011;59;48.778;9.156;2022-12-18T00:28:53;72.87;;;42.90;;
553;SDS011;59;48.778;9.156;2022-12-18T00:31:21;71.97;;;43.80;;
553;SDS011;59;48.778;9.156;2022-12-18T00:33:48;72.32;;;44.53;;
553;SDS011;59;48.778;9.156;2022-12-18T00:36:15;72.18;;;44.65;;
553;SDS011;59;48.778;9.156;2022-12-18T00:38:42;71.20;;;42.20;;
553;SDS011;59;48.778;9.156;2022-12-18T00:41:09;72.30;;;42.90;;
553;SDS011;59;48.778;9.156;2022-12-18T00:43:36;69.20;;;44.20;;
553;SDS011;59;48.778;9.156;2022-12-18T00:46:02;66.35;;;42.17;;
553;SDS011;59;48.778;9.156;2022-12-18T00:48:28;65.40;;;39.50;;
553;SDS011;59;48.778;9.156;2022-12-18T00:50:54;68.30;;;41.67;;
553;SDS011;59;48.778;9.156;2022-12-18T00:53:20;70.53;;;42.43;;
553;SDS011;59;48.778;9.156;2022-12-18T00:55:46;68.40;;;42.77;;
553;SDS011;59;48.778;9.156;2022-12-18T00:58:12;68.50;;;42.40;;
553;SDS011;59;48.778;9.156;2022-12-18T01:00:40;65.60;;;41.75;;
553;SDS011;59;48.778;9.156;2022-12-18T01:03:06;74.40;;;44.37;;
553;SDS011;59;48.778;9.156;2022-12-18T01:05:32;68.30;;;43.33;;
553;SDS011;59;48.778;9.156;2022-12-18T01:07:58;69.43;;;42.90;;
553;SDS011;59;48.778;9.156;2022-12-18T01:10:24;64.53;;;41.77;;
553;SDS011;59;48.778;9.156;2022-12-18T01:12:50;69.57;;;42.80;;
553;SDS011;59;48.778;9.156;2022-12-18T01:15:16;63.63;;;40.27;;
553;SDS011;59;48.778;9.156;2022-12-18T01:17:43;66.47;;;41.50;;
553;SDS011;59;48.778;9.156;2022-12-18T01:20:10;66.17;;;40.53;;
553;SDS011;59;48.778;9.156;2022-12-18T01:22:36;70.17;;;42.53;;
553;SDS011;59;48.778;9.156;2022-12-18T01:25:02;69.37;;;43.10;;
553;SDS011;59;48.778;9.156;2022-12-18T01:27:29;66.32;;;42.22;;
553;SDS011;59;48.778;9.156;2022-12-18T01:29:55;62.10;;;39.25;;
553;SDS011;59;48.778;9.156;2022-12-18T01:32:21;65.28;;;39.80;;
553;SDS011;59;48.778;9.156;2022-12-18T01:34:47;60.40;;;38.27;;
553;SDS011;59;48.778;9.156;2022-12-18T01:37:13;61.60;;;39.37;;
553;SDS011;59;48.778;9.156;2022-12-18T01:39:38;59.53;;;39.03;;
553;SDS011;59;48.778;9.156;2022-12-18T01:42:08;57.97;;;36.23;;
553;SDS011;59;48.778;9.156;2022-12-18T01:44:57;64.07;;;41.05;;
553;SDS011;59;48.778;9.156;2022-12-18T01:50:06;59.13;;;38.03;;
553;SDS011;59;48.778;9.156;2022-12-18T01:52:33;61.57;;;37.87;;
553;SDS011;59;48.778;9.156;2022-12-18T01:55:00;59.07;;;38.10;;
553;SDS011;59;48.778;9.156;2022-12-18T01:57:27;64.55;;;40.15;;
553;SDS011;59;48.778;9.156;2022-12-18T01:59:54;62.33;;;39.30;;
553;SDS011;59;48.778;9.156;2022-12-18T02:02:22;63.85;;;40.15;;
553;SDS011;59;48.778;9.156;2022-12-18T02:04:48;61.23;;;38.10;;
553;SDS011;59;48.778;9.156;2022-12-18T02:07:20;63.27;;;40.90;;
553;SDS011;59;48.778;9.156;2022-12-18T02:10:07;59.08;;;36.33;;
553;SDS011;59;48.778;9.156;2022-12-18T02:15:36;63.30;;;37.67;;
553;SDS011;59;48.778;9.156;2022-12-18T02:20:47;58.25;;;38.00;;
553;SDS011;59;48.778;9.156;2022-12-18T02:28:42;61.67;;;37.30;;
553;SDS011;59;48.778;9.156;2022-12-18T02:31:15;58.67;;;36.70;;
553;SDS011;59;48.778;9.156;2022-12-18T02:33:43;58.95;;;37.90;;
553;SDS011;59;48.778;9.156;2022-12-18T02:36:10;58.72;;;36.90;;
553;SDS011;59;48.778;9.156;2022-12-18T02:38:39;57.60;;;35.25;;
553;SDS011;59;48.778;9.156;2022-12-18T02:41:05;58.00;;;34.30;;
553;SDS011;59;48.778;9.156;2022-12-18T02:43:31;59.07;;;35.57;;
553;SDS011;59;48.778;9.156;2022-12-18T02:45:57;59.07;;;37.33;;
553;SDS011;59;48.778;9.156;2022-12-18T02:48:34;57.80;;;35.42;;
553;SDS011;59;48.778;9.156;2022-12-18T02:56:09;57.10;;;35.67;;
553;SDS011;59;48.778;9.156;2022-12-18T02:58:59;57.90;;;35.78;;
553;SDS011;59;48.778;9.156;2022-12-18T03:04:02;57.47;;;36.80;;
553;SDS011;59;48.778;9.156;2022-12-18T03:06:33;58.65;;;37.70;;
553;SDS011;59;48.778;9.156;2022-12-18T03:09:04;52.00;;;33.57;;
553;SDS011;59;48.778;9.156;2022-12-18T03:11:33;59.88;;;37.70;;
553;SDS011;59;48.778;9.156;2022-12-18T03:14:17;55.80;;;33.70;;
553;SDS011;59;48.778;9.156;2022-12-18T03:16:45;56.65;;;34.50;;
553;SDS011;59;48.778;9.156;2022-12-18T03:19:15;59.83;;;37.17;;
553;SDS011;59;48.778;9.156;2022-12-18T03:21:43;58.00;;;37.00;;
553;SDS011;59;48.778;9.156;2022-12-18T03:24:20;56.57;;;35.37;;
553;SDS011;59;48.778;9.156;2022-12-18T03:26:47;51.87;;;33.27;;
553;SDS011;59;48.778;9.156;2022-12-18T03:29:26;56.58;;;35.22;;
553;SDS011;59;48.778;9.156;2022-12-18T03:34:32;57.58;;;35.65;;
553;SDS011;59;48.778;9.156;2022-12-18T03:36:59;55.35;;;34.75;;
553;SDS011;59;48.778;9.156;2022-12-18T03:39:26;57.83;;;36.53;;
553;SDS011;59;48.778;9.156;2022-12-18T03:44:43;52.85;;;34.20;;
553;SDS011;59;48.778;9.156;2022-12-18T03:49:56;51.83;;;33.15;;
553;SDS011;59;48.778;9.156;2022-12-18T03:52:38;51.55;;;33.00;;
553;SDS011;59;48.778;9.156;2022-12-18T03:55:09;54.95;;;36.08;;
553;SDS011;59;48.778;9.156;2022-12-18T03:57:36;54.15;;;34.40;;
553;SDS011;59;48.778;9.156;2022-12-18T04:00:07;52.78;;;34.63;;
553;SDS011;59;48.778;9.156;2022-12-18T04:02:34;49.92;;;33.25;;
553;SDS011;59;48.778;9.156;2022-12-18T04:05:03;55.08;;;33.95;;
553;SDS011;59;48.778;9.156;2022-12-18T04:07:30;53.08;;;33.03;;
553;SDS011;59;48.778;9.156;2022-12-18T04:09:56;56.35;;;35.53;;
553;SDS011;59;48.778;9.156;2022-12-18T04:12:28;57.30;;;35.38;;
553;SDS011;59;48.778;9.156;2022-12-18T04:14:54;53.17;;;33.72;;
553;SDS011;59;48.778;9.156;2022-12-18T04:17:20;50.63;;;32.70;;
553;SDS011;59;48.778;9.156;2022-12-18T04:19:46;49.95;;;32.83;;
553;SDS011;59;48.778;9.156;2022-12-18T04:22:12;53.70;;;33.73;;
553;SDS011;59;48.778;9.156;2022-12-18T04:24:37;53.43;;;35.20;;
553;SDS011;59;48.778;9.156;2022-12-18T04:27:04;53.23;;;34.33;;
553;SDS011;59;48.778;9.156;2022-12-18T04:29:30;54.13;;;33.45;;
553;SDS011;59;48.778;9.156;2022-12-18T04:31:56;56.13;;;36.50;;
553;SDS011;59;48.778;9.156;2022-12-18T04:34:21;54.33;;;34.10;;
553;SDS011;59;48.778;9.156;2022-12-18T04:36:47;50.53;;;33.13;;
553;SDS011;59;48.778;9.156;2022-12-18T04:39:13;51.93;;;32.23;;
553;SDS011;59;48.778;9.156;2022-12-18T04:41:39;51.75;;;32.17;;
553;SDS011;59;48.778;9.156;2022-12-18T04:44:06;51.35;;;32.03;;
553;SDS011;59;48.778;9.156;2022-12-18T04:46:31;48.10;;;31.73;;
553;SDS011;59;48.778;9.156;2022-12-18T04:48:57;49.10;;;31.10;;
553;SDS011;59;48.778;9.156;2022-12-18T04:51:23;51.97;;;32.80;;
553;SDS011;59;48.778;9.156;2022-12-18T04:53:49;51.80;;;36.00;;
553;SDS011;59;48.778;9.156;2022-12-18T04:56:15;48.17;;;31.80;;
553;SDS011;59;48.778;9.156;2022-12-18T04:58:41;53.15;;;33.45;;
553;SDS011;59;48.778;9.156;2022-12-18T05:01:08;53.28;;;33.83;;
553;SDS011;59;48.778;9.156;2022-12-18T05:03:35;54.45;;;32.63;;
553;SDS011;59;48.778;9.156;2022-12-18T05:06:01;52.28;;;32.95;;
553;SDS011;59;48.778;9.156;2022-12-18T05:08:27;54.08;;;34.55;;
553;SDS011;59;48.778;9.156;2022-12-18T05:11:09;56.40;;;34.40;;
553;SDS011;59;48.778;9.156;2022-12-18T05:13:36;55.00;;;33.78;;
553;SDS011;59;48.778;9.156;2022-12-18T05:16:03;55.28;;;35.58;;
553;SDS011;59;48.778;9.156;2022-12-18T05:18:29;50.50;;;32.63;;
553;SDS011;59;48.778;9.156;2022-12-18T05:20:55;55.60;;;33.67;;
553;SDS011;59;48.778;9.156;2022-12-18T05:23:21;52.20;;;32.33;;
553;SDS011;59;48.778;9.156;2022-12-18T05:25:54;49.08;;;32.53;;
553;SDS011;59;48.778;9.156;2022-12-18T05:28:21;52.25;;;34.13;;
553;SDS011;59;48.778;9.156;2022-12-18T05:30:49;51.72;;;32.60;;
553;SDS011;59;48.778;9.156;2022-12-18T05:33:15;49.30;;;31.75;;
553;SDS011;59;48.778;9.156;2022-12-18T05:35:41;52.42;;;34.00;;
553;SDS011;59;48.778;9.156;2022-12-18T05:38:07;48.50;;;33.90;;
553;SDS011;59;48.778;9.156;2022-12-18T05:40:33;49.50;;;31.57;;
553;SDS011;59;48.778;9.156;2022-12-18T05:42:58;53.13;;;33.90;;
553;SDS011;59;48.778;9.156;2022-12-18T05:45:24;52.50;;;34.00;;
553;SDS011;59;48.778;9.156;2022-12-18T05:47:50;56.63;;;34.60;;
553;SDS011;59;48.778;9.156;2022-12-18T05:50:15;50.33;;;33.03;;
553;SDS011;59;48.778;9.156;2022-12-18T05:52:41;49.63;;;32.17;;
553;SDS011;59;48.778;9.156;2022-12-18T05:55:07;53.93;;;33.10;;
553;SDS011;59;48.778;9.156;2022-12-18T05:57:32;50.50;;;32.40;;
553;SDS011;59;48.778;9.156;2022-12-18T05:59:58;49.80;;;31.73;;
553;SDS011;59;48.778;9.156;2022-12-18T06:02:24;52.27;;;32.53;;
553;SDS011;59;48.778;9.156;2022-12-18T06:04:49;54.60;;;33.30;;
553;SDS011;59;48.778;9.156;2022-12-18T06:07:15;48.47;;;31.10;;
553;SDS011;59;48.778;9.156;2022-12-18T06:09:41;51.60;;;32.17;;
553;SDS011;59;48.778;9.156;2022-12-18T06:12:06;50.50;;;34.17;;
553;SDS011;59;48.778;9.156;2022-12-18T06:14:32;54.27;;;33.87;;
553;SDS011;59;48.778;9.156;2022-12-18T06:16:57;51.47;;;32.73;;
553;SDS011;59;48.778;9.156;2022-12-18T06:19:23;52.60;;;34.33;;
553;SDS011;59;48.778;9.156;2022-12-18T06:21:49;47.80;;;32.07;;
553;SDS011;59;48.778;9.156;2022-12-18T06:24:15;48.55;;;31.77;;
553;SDS011;59;48.778;9.156;2022-12-18T06:26:41;53.30;;;31.30;;
553;SDS011;59;48.778;9.156;2022-12-18T06:29:07;50.03;;;33.07;;
553;SDS011;59;48.778;9.156;2022-12-18T06:31:32;48.67;;;31.10;;
553;SDS011;59;48.778;9.156;2022-12-18T06:33:58;48.50;;;30.90;;
553;SDS011;59;48.778;9.156;2022-12-18T06:36:24;47.83;;;31.17;;
553;SDS011;59;48.778;9.156;2022-12-18T06:38:49;49.27;;;31.03;;
553;SDS011;59;48.778;9.156;2022-12-18T06:41:16;52.57;;;31.43;;
553;SDS011;59;48.778;9.156;2022-12-18T06:43:43;44.70;;;28.67;;
553;SDS011;59;48.778;9.156;2022-12-18T06:46:09;48.93;;;32.03;;
553;SDS011;59;48.778;9.156;2022-12-18T06:48:35;47.70;;;30.83;;
553;SDS011;59;48.778;9.156;2022-12-18T06:51:01;43.97;;;28.17;;
553;SDS011;59;48.778;9.156;2022-12-18T06:53:27;49.10;;;29.90;;
553;SDS011;59;48.778;9.156;2022-12-18T06:55:52;55.20;;;34.13;;
553;SDS011;59;48.778;9.156;2022-12-18T06:58:24;48.63;;;33.05;;
553;SDS011;59;48.778;9.156;2022-12-18T07:00:50;49.10;;;32.63;;
553;SDS011;59;48.778;9.156;2022-12-18T07:03:16;50.63;;;31.40;;
553;SDS011;59;48.778;9.156;2022-12-18T07:05:42;48.00;;;31.20;;
553;SDS011;59;48.778;9.156;2022-12-18T07:08:08;50.93;;;32.30;;
553;SDS011;59;48.778;9.156;2022-12-18T07:10:33;50.13;;;30.90;;
553;SDS011;59;48.778;9.156;2022-12-18T07:13:05;45.80;;;29.70;;
553;SDS011;59;48.778;9.156;2022-12-18T07:15:31;45.20;;;29.23;;
553;SDS011;59;48.778;9.156;2022-12-18T07:17:56;46.83;;;29.53;;
553;SDS011;59;48.778;9.156;2022-12-18T07:20:22;49.30;;;29.77;;
553;SDS011;59;48.778;9.156;2022-12-18T07:22:47;48.80;;;30.03;;
553;SDS011;59;48.778;9.156;2022-12-18T07:25:13;49.03;;;30.00;;
553;SDS011;59;48.778;9.156;2022-12-18T07:27:39;46.37;;;29.27;;
553;SDS011;59;48.778;9.156;2022-12-18T07:30:05;45.53;;;28.60;;
553;SDS011;59;48.778;9.156;2022-12-18T07:32:31;52.83;;;31.88;;
553;SDS011;59;48.778;9.156;2022-12-18T07:34:57;44.77;;;27.70;;
553;SDS011;59;48.778;9.156;2022-12-18T07:37:22;44.90;;;28.87;;
553;SDS011;59;48.778;9.156;2022-12-18T07:39:48;49.00;;;29.20;;
553;SDS011;59;48.778;9.156;2022-12-18T07:42:13;45.93;;;30.00;;
553;SDS011;59;48.778;9.156;2022-12-18T07:44:57;45.00;;;28.35;;
553;SDS011;59;48.778;9.156;2022-12-18T07:47:27;50.47;;;31.73;;
553;SDS011;59;48.778;9.156;2022-12-18T07:49:54;50.65;;;31.73;;
553;SDS011;59;48.778;9.156;2022-12-18T07:52:20;53.20;;;32.70;;
553;SDS011;59;48.778;9.156;2022-12-18T07:54:46;45.85;;;30.10;;
553;SDS011;59;48.778;9.156;2022-12-18T07:57:14;45.65;;;29.73;;
553;SDS011;59;48.778;9.156;2022-12-18T07:59:41;53.90;;;32.17;;
553;SDS011;59;48.778;9.156;2022-12-18T08:02:07;48.33;;;30.90;;
553;SDS011;59;48.778;9.156;2022-12-18T08:04:32;48.20;;;29.43;;
553;SDS011;59;48.778;9.156;2022-12-18T08:06:58;51.03;;;30.17;;
553;SDS011;59;48.778;9.156;2022-12-18T08:09:24;55.70;;;34.73;;
553;SDS011;59;48.778;9.156;2022-12-18T08:11:49;49.03;;;30.57;;
553;SDS011;59;48.778;9.156;2022-12-18T08:14:15;47.23;;;29.80;;
553;SDS011;59;48.778;9.156;2022-12-18T08:16:41;50.57;;;31.23;;
553;SDS011;59;48.778;9.156;2022-12-18T08:19:07;45.33;;;30.87;;
553;SDS011;59;48.778;9.156;2022-12-18T08:21:32;45.97;;;29.30;;
553;SDS011;59;48.778;9.156;2022-12-18T08:23:58;50.37;;;31.53;;
553;SDS011;59;48.778;9.156;2022-12-18T08:26:26;46.53;;;30.00;;
553;SDS011;59;48.778;9.156;2022-12-18T08:28:53;49.90;;;32.40;;
553;SDS011;59;48.778;9.156;2022-12-18T08:31:20;49.58;;;31.73;;
553;SDS011;59;48.778;9.156;2022-12-18T08:33:50;53.50;;;31.30;;
553;SDS011;59;48.778;9.156;2022-12-18T08:36:17;51.70;;;30.63;;
553;SDS011;59;48.778;9.156;2022-12-18T08:38:44;49.33;;;30.17;;
553;SDS011;59;48.778;9.156;2022-12-18T08:41:11;50.20;;;32.23;;
553;SDS011;59;48.778;9.156;2022-12-18T08:43:38;51.80;;;32.15;;
553;SDS011;59;48.778;9.156;2022-12-18T08:46:23;45.87;;;29.07;;
553;SDS011;59;48.778;9.156;2022-12-18T08:48:52;49.40;;;30.15;;
553;SDS011;59;48.778;9.156;2022-12-18T08:51:19;47.53;;;29.08;;
553;SDS011;59;48.778;9.156;2022-12-18T08:53:45;55.40;;;33.00;;
553;SDS011;59;48.778;9.156;2022-12-18T08:56:11;48.67;;;30.90;;
553;SDS011;59;48.778;9.156;2022-12-18T08:58:37;51.42;;;31.33;;
553;SDS011;59;48.778;9.156;2022-12-18T09:01:03;48.60;;;30.77;;
553;SDS011;59;48.778;9.156;2022-12-18T09:03:30;48.22;;;30.05;;
553;SDS011;59;48.778;9.156;2022-12-18T09:05:56;48.83;;;31.27;;
553;SDS011;59;48.778;9.156;2022-12-18T09:08:22;61.57;;;38.27;;
553;SDS011;59;48.778;9.156;2022-12-18T09:10:48;62.13;;;38.97;;
553;SDS011;59;48.778;9.156;2022-12-18T09:13:15;54.45;;;33.53;;
553;SDS011;59;48.778;9.156;2022-12-18T09:15:42;53.30;;;34.72;;
553;SDS011;59;48.778;9.156;2022-12-18T09:18:10;55.60;;;32.67;;
553;SDS011;59;48.778;9.156;2022-12-18T09:20:37;48.90;;;30.60;;
553;SDS011;59;48.778;9.156;2022-12-18T09:23:04;49.50;;;31.02;;
553;SDS011;59;48.778;9.156;2022-12-18T09:25:30;47.35;;;30.02;;
553;SDS011;59;48.778;9.156;2022-12-18T09:28:01;49.83;;;30.75;;
553;SDS011;59;48.778;9.156;2022-12-18T09:30:28;49.93;;;30.80;;
553;SDS011;59;48.778;9.156;2022-12-18T09:32:53;53.33;;;33.50;;
553;SDS011;59;48.778;9.156;2022-12-18T09:35:19;52.50;;;33.93;;
553;SDS011;59;48.778;9.156;2022-12-18T09:37:45;51.90;;;32.13;;
553;SDS011;59;48.778;9.156;2022-12-18T09:40:14;52.07;;;33.83;;
553;SDS011;59;48.778;9.156;2022-12-18T09:42:42;49.13;;;30.37;;
553;SDS011;59;48.778;9.156;2022-12-18T09:45:12;54.55;;;34.63;;
553;SDS011;59;48.778;9.156;2022-12-18T09:47:39;53.13;;;32.17;;
553;SDS011;59;48.778;9.156;2022-12-18T09:50:13;50.42;;;31.95;;
553;SDS011;59;48.778;9.156;2022-12-18T09:52:56;53.20;;;32.95;;
553;SDS011;59;48.778;9.156;2022-12-18T09:55:34;50.80;;;32.23;;
553;SDS011;59;48.778;9.156;2022-12-18T09:58:06;54.03;;;34.30;;
553;SDS011;59;48.778;9.156;2022-12-18T10:00:57;56.13;;;35.08;;
553;SDS011;59;48.778;9.156;2022-12-18T10:03:23;55.23;;;35.33;;
553;SDS011;59;48.778;9.156;2022-12-18T10:17:16;56.25;;;32.78;;
553;SDS011;59;48.778;9.156;2022-12-18T10:27:32;50.27;;;28.70;;
553;SDS011;59;48.778;9.156;2022-12-18T10:29:58;51.13;;;29.43;;
553;SDS011;59;48.778;9.156;2022-12-18T10:32:24;49.83;;;30.67;;
553;SDS011;59;48.778;9.156;2022-12-18T10:34:56;53.40;;;30.30;;
553;SDS011;59;48.778;9.156;2022-12-18T10:37:26;54.53;;;31.90;;
553;SDS011;59;48.778;9.156;2022-12-18T10:40:15;54.03;;;31.10;;
553;SDS011;59;48.778;9.156;2022-12-18T10:42:41;49.17;;;28.30;;
553;SDS011;59;48.778;9.156;2022-12-18T10:45:16;46.00;;;28.80;;
553;SDS011;59;48.778;9.156;2022-12-18T10:47:45;44.23;;;26.90;;
553;SDS011;59;48.778;9.156;2022-12-18T10:50:32;41.80;;;27.27;;
553;SDS011;59;48.778;9.156;2022-12-18T10:52:59;46.17;;;28.80;;
553;SDS011;59;48.778;9.156;2022-12-18T10:55:27;43.37;;;27.40;;
553;SDS011;59;48.778;9.156;2022-12-18T10:58:44;46.67;;;27.87;;
553;SDS011;59;48.778;9.156;2022-12-18T11:03:32;51.10;;;30.83;;
553;SDS011;59;48.778;9.156;2022-12-18T11:08:33;41.37;;;26.77;;
553;SDS011;59;48.778;9.156;2022-12-18T11:11:00;45.27;;;27.27;;
553;SDS011;59;48.778;9.156;2022-12-18T11:13:27;40.13;;;24.40;;
553;SDS011;59;48.778;9.156;2022-12-18T11:15:54;47.00;;;26.17;;
553;SDS011;59;48.778;9.156;2022-12-18T11:20:54;44.53;;;26.93;;
553;SDS011;59;48.778;9.156;2022-12-18T11:23:24;42.00;;;24.43;;
553;SDS011;59;48.778;9.156;2022-12-18T11:25:52;46.67;;;26.47;;
553;SDS011;59;48.778;9.156;2022-12-18T11:28:34;47.07;;;26.90;;
553;SDS011;59;48.778;9.156;2022-12-18T11:31:09;43.20;;;25.40;;
553;SDS011;59;48.778;9.156;2022-12-18T11:33:40;38.90;;;23.50;;
553;SDS011;59;48.778;9.156;2022-12-18T11:36:09;39.83;;;22.80;;
553;SDS011;59;48.778;9.156;2022-12-18T11:38:36;45.50;;;24.57;;
553;SDS011;59;48.778;9.156;2022-12-18T11:44:08;49.97;;;26.77;;
553;SDS011;59;48.778;9.156;2022-12-18T11:46:37;51.17;;;27.23;;
553;SDS011;59;48.778;9.156;2022-12-18T11:49:17;84.43;;;44.67;;
553;SDS011;59;48.778;9.156;2022-12-18T11:52:00;62.30;;;35.20;;
553;SDS011;59;48.778;9.156;2022-12-18T11:54:29;50.20;;;28.07;;
553;SDS011;59;48.778;9.156;2022-12-18T12:13:07;47.43;;;27.53;;
553;SDS011;59;48.778;9.156;2022-12-18T12:24:04;46.40;;;27.37;;
553;SDS011;59;48.778;9.156;2022-12-18T12:37:40;44.57;;;27.13;;
553;SDS011;59;48.778;9.156;2022-12-18T12:40:19;45.23;;;26.10;;
553;SDS011;59;48.778;9.156;2022-12-18T12:42:51;50.97;;;28.13;;
553;SDS011;59;48.778;9.156;2022-12-18T12:45:47;42.90;;;25.40;;
553;SDS011;59;48.778;9.156;2022-12-18T12:48:47;47.30;;;27.30;;
553;SDS011;59;48.778;9.156;2022-12-18T12:51:18;49.00;;;27.10;;
553;SDS011;59;48.778;9.156;2022-12-18T12:53:46;45.83;;;26.97;;
553;SDS011;59;48.778;9.156;2022-12-18T12:56:14;43.53;;;26.27;;
553;SDS011;59;48.778;9.156;2022-12-18T12:59:18;42.50;;;24.87;;
553;SDS011;59;48.778;9.156;2022-12-18T13:01:36;42.47;;;26.40;;
553;SDS011;59;48.778;9.156;2022-12-18T13:09:32;39.33;;;24.13;;
553;SDS011;59;48.778;9.156;2022-12-18T13:12:17;47.60;;;27.57;;
553;SDS011;59;48.778;9.156;2022-12-18T13:15:11;53.60;;;30.50;;
553;SDS011;59;48.778;9.156;2022-12-18T13:20:40;46.83;;;27.60;;
553;SDS011;59;48.778;9.156;2022-12-18T13:25:55;47.03;;;26.13;;
553;SDS011;59;48.778;9.156;2022-12-18T13:30:59;51.60;;;30.07;;
553;SDS011;59;48.778;9.156;2022-12-18T13:35:58;50.13;;;28.70;;
553;SDS011;59;48.778;9.156;2022-12-18T13:40:57;49.17;;;28.50;;
553;SDS011;59;48.778;9.156;2022-12-18T13:43:35;52.00;;;28.50;;
553;SDS011;59;48.778;9.156;2022-12-18T13:46:06;46.70;;;28.07;;
553;SDS011;59;48.778;9.156;2022-12-18T13:51:43;47.10;;;26.20;;
553;SDS011;59;48.778;9.156;2022-12-18T13:57:03;51.30;;;28.83;;
553;SDS011;59;48.778;9.156;2022-12-18T13:59:35;53.13;;;30.63;;
553;SDS011;59;48.778;9.156;2022-12-18T14:02:16;46.77;;;28.77;;
553;SDS011;59;48.778;9.156;2022-12-18T14:04:46;51.03;;;29.23;;
553;SDS011;59;48.778;9.156;2022-12-18T14:07:14;86.90;;;49.40;;
553;SDS011;59;48.778;9.156;2022-12-18T14:09:42;80.83;;;46.93;;
553;SDS011;59;48.778;9.156;2022-12-18T14:12:21;55.07;;;32.20;;
553;SDS011;59;48.778;9.156;2022-12-18T14:15:06;51.37;;;30.00;;
553;SDS011;59;48.778;9.156;2022-12-18T14:17:49;52.00;;;29.87;;
553;SDS011;59;48.778;9.156;2022-12-18T14:20:15;60.23;;;33.43;;
553;SDS011;59;48.778;9.156;2022-12-18T14:22:43;66.57;;;37.63;;
553;SDS011;59;48.778;9.156;2022-12-18T14:27:50;57.77;;;33.27;;
553;SDS011;59;48.778;9.156;2022-12-18T14:33:03;51.50;;;30.10;;
553;SDS011;59;48.778;9.156;2022-12-18T14:35:31;54.20;;;30.97;;
553;SDS011;59;48.778;9.156;2022-12-18T14:40:43;53.60;;;30.80;;
553;SDS011;59;48.778;9.156;2022-12-18T14:43:10;57.27;;;33.10;;
553;SDS011;59;48.778;9.156;2022-12-18T14:45:36;57.53;;;32.73;;
553;SDS011;59;48.778;9.156;2022-12-18T14:48:08;54.20;;;31.90;;
553;SDS011;59;48.778;9.156;2022-12-18T14:50:37;61.93;;;34.27;;
553;SDS011;59;48.778;9.156;2022-12-18T14:53:03;101.40;;;61.00;;
553;SDS011;59;48.778;9.156;2022-12-18T14:55:29;106.50;;;64.10;;
553;SDS011;59;48.778;9.156;2022-12-18T14:57:55;73.97;;;44.20;;
553;SDS011;59;48.778;9.156;2022-12-18T15:00:22;64.17;;;38.40;;
553;SDS011;59;48.778;9.156;2022-12-18T15:02:50;57.40;;;33.50;;
553;SDS011;59;48.778;9.156;2022-12-18T15:05:25;58.30;;;33.83;;
553;SDS011;59;48.778;9.156;2022-12-18T15:07:55;54.97;;;32.40;;
553;SDS011;59;48.778;9.156;2022-12-18T15:10:26;56.17;;;32.33;;
553;SDS011;59;48.778;9.156;2022-12-18T15:20:47;53.17;;;31.40;;
553;SDS011;59;48.778;9.156;2022-12-18T15:23:25;53.90;;;31.23;;
553;SDS011;59;48.778;9.156;2022-12-18T15:25:55;51.10;;;29.50;;
553;SDS011;59;48.778;9.156;2022-12-18T15:28:23;56.73;;;30.43;;
553;SDS011;59;48.778;9.156;2022-12-18T15:30:57;57.50;;;33.30;;
553;SDS011;59;48.778;9.156;2022-12-18T15:33:42;56.50;;;32.87;;
553;SDS011;59;48.778;9.156;2022-12-18T15:36:11;61.13;;;34.07;;
553;SDS011;59;48.778;9.156;2022-12-18T15:38:38;55.87;;;32.53;;
553;SDS011;59;48.778;9.156;2022-12-18T15:41:04;55.30;;;32.03;;
553;SDS011;59;48.778;9.156;2022-12-18T15:43:31;57.50;;;33.30;;
553;SDS011;59;48.778;9.156;2022-12-18T15:46:04;58.40;;;35.67;;
553;SDS011;59;48.778;9.156;2022-12-18T15:48:39;62.20;;;35.47;;
553;SDS011;59;48.778;9.156;2022-12-18T15:51:11;54.53;;;32.47;;
553;SDS011;59;48.778;9.156;2022-12-18T15:54:04;58.07;;;32.37;;
553;SDS011;59;48.778;9.156;2022-12-18T15:56:36;58.93;;;34.23;;
553;SDS011;59;48.778;9.156;2022-12-18T15:59:20;67.77;;;39.17;;
553;SDS011;59;48.778;9.156;2022-12-18T16:01:48;70.13;;;38.93;;
553;SDS011;59;48.778;9.156;2022-12-18T16:04:17;64.40;;;38.50;;
553;SDS011;59;48.778;9.156;2022-12-18T16:06:45;60.80;;;36.20;;
553;SDS011;59;48.778;9.156;2022-12-18T16:09:11;55.97;;;32.30;;
553;SDS011;59;48.778;9.156;2022-12-18T16:11:37;65.17;;;35.73;;
553;SDS011;59;48.778;9.156;2022-12-18T16:17:09;65.77;;;37.23;;
553;SDS011;59;48.778;9.156;2022-12-18T16:19:36;57.70;;;33.30;;
553;SDS011;59;48.778;9.156;2022-12-18T16:22:01;58.37;;;34.60;;
553;SDS011;59;48.778;9.156;2022-12-18T16:24:28;60.33;;;34.87;;
553;SDS011;59;48.778;9.156;2022-12-18T16:26:57;58.27;;;34.63;;
553;SDS011;59;48.778;9.156;2022-12-18T16:29:24;57.00;;;33.37;;
553;SDS011;59;48.778;9.156;2022-12-18T16:31:59;53.30;;;32.03;;
553;SDS011;59;48.778;9.156;2022-12-18T16:36:53;53.93;;;31.97;;
553;SDS011;59;48.778;9.156;2022-12-18T16:39:20;52.67;;;31.33;;
553;SDS011;59;48.778;9.156;2022-12-18T16:41:46;52.17;;;31.53;;
553;SDS011;59;48.778;9.156;2022-12-18T16:44:12;57.37;;;34.13;;
553;SDS011;59;48.778;9.156;2022-12-18T16:46:39;58.17;;;34.37;;
553;SDS011;59;48.778;9.156;2022-12-18T16:49:07;57.43;;;35.27;;
553;SDS011;59;48.778;9.156;2022-12-18T16:51:33;53.37;;;33.90;;
553;SDS011;59;48.778;9.156;2022-12-18T16:53:59;52.13;;;31.30;;
553;SDS011;59;48.778;9.156;2022-12-18T16:56:25;132.03;;;79.93;;
553;SDS011;59;48.778;9.156;2022-12-18T16:58:54;92.17;;;54.27;;
553;SDS011;59;48.778;9.156;2022-12-18T17:01:21;66.20;;;39.90;;
553;SDS011;59;48.778;9.156;2022-12-18T17:03:54;61.97;;;37.07;;
553;SDS011;59;48.778;9.156;2022-12-18T17:06:25;59.60;;;34.03;;
553;SDS011;59;48.778;9.156;2022-12-18T17:08:55;59.50;;;36.50;;
553;SDS011;59;48.778;9.156;2022-12-18T17:11:25;55.27;;;32.77;;
553;SDS011;59;48.778;9.156;2022-12-18T17:13:52;60.33;;;33.43;;
553;SDS011;59;48.778;9.156;2022-12-18T17:16:18;51.90;;;32.10;;
553;SDS011;59;48.778;9.156;2022-12-18T17:18:44;50.00;;;30.83;;
553;SDS011;59;48.778;9.156;2022-12-18T17:21:10;55.93;;;32.73;;
553;SDS011;59;48.778;9.156;2022-12-18T17:23:38;49.97;;;30.60;;
553;SDS011;59;48.778;9.156;2022-12-18T17:26:04;54.40;;;32.33;;
553;SDS011;59;48.778;9.156;2022-12-18T17:28:32;57.00;;;31.47;;
553;SDS011;59;48.778;9.156;2022-12-18T17:30:58;50.93;;;32.33;;
553;SDS011;59;48.778;9.156;2022-12-18T17:33:24;50.27;;;30.00;;
553;SDS011;59;48.778;9.156;2022-12-18T17:35:50;49.00;;;30.00;;
553;SDS011;59;48.778;9.156;2022-12-18T17:38:16;48.80;;;28.30;;
553;SDS011;59;48.778;9.156;2022-12-18T17:40:42;48.40;;;29.07;;
553;SDS011;59;48.778;9.156;2022-12-18T17:43:08;53.53;;;30.97;;
553;SDS011;59;48.778;9.156;2022-12-18T17:45:38;49.70;;;30.30;;
553;SDS011;59;48.778;9.156;2022-12-18T17:48:04;53.90;;;31.93;;
553;SDS011;59;48.778;9.156;2022-12-18T17:50:31;47.10;;;29.00;;
553;SDS011;59;48.778;9.156;2022-12-18T17:52:58;47.17;;;28.50;;
553;SDS011;59;48.778;9.156;2022-12-18T17:55:23;50.40;;;29.57;;
553;SDS011;59;48.778;9.156;2022-12-18T17:57:50;47.33;;;28.20;;
553;SDS011;59;48.778;9.156;2022-12-18T18:00:16;48.80;;;29.67;;
553;SDS011;59;48.778;9.156;2022-12-18T18:02:41;49.73;;;30.77;;